METAR Data
IDs: Format: Raw Decoded Include TAF

Data at: 0509 UTC 26 Sep 2018

KEQY 260453Z AUTO 00000KT 10SM CLR 20/18 A3013 RMK AO2 SLP202 T02000183 402890194
KEQY 260353Z AUTO 00000KT 10SM CLR 20/18 A3014 RMK AO2 SLP206 T02000183
KEQY 260253Z AUTO 00000KT 10SM CLR 21/18 A3015 RMK AO2 SLP210 T02060183 50007
KEQY 260153Z AUTO 00000KT 10SM CLR 21/19 A3015 RMK AO2 SLP212 T02110189
KEQY 260053Z AUTO 00000KT 10SM CLR 22/18 A3014 RMK AO2 SLP208 T02220183
KEQY 252353Z AUTO 00000KT 10SM CLR 23/18 A3012 RMK AO2 SLP202 T02330183 10289 20233 55003
KEQY 252253Z AUTO 05003KT 10SM CLR 26/19 A3012 RMK AO2 SLP199 T02610189
KEQY 252153Z AUTO 04006KT 10SM CLR 28/18 A3012 RMK AO2 SLP198 T02780183
KEQY 252053Z AUTO 35004KT 10SM CLR 28/18 A3013 RMK AO2 SLP202 T02830183 56022
KEQY 251953Z AUTO 33005KT 10SM CLR 28/19 A3015 RMK AO2 SLP208 T02780189
KEQY 251853Z AUTO 30004KT 10SM CLR 27/19 A3017 RMK AO2 SLP216 T02670189
KEQY 251753Z AUTO 00000KT 10SM SCT024 27/19 A3020 RMK AO2 SLP226 T02670194 10272 20200 58016
KEQY 251740Z AUTO VRB03KT 10SM SCT021 27/19 A3021 RMK AO2 T02670194
KEQY 251653Z AUTO 02006KT 10SM BKN018 OVC025 26/20 A3022 RMK AO2 SLP234 T02560200
KEQY 251624Z AUTO 00000KT 9SM FEW008 SCT014 OVC020 24/20 A3023 RMK AO2 T02390200
KEQY 251553Z AUTO 00000KT 8SM OVC007 23/20 A3024 RMK AO2 CIG 006V010 SLP239 T02280200
KEQY 251523Z AUTO 05004KT 7SM OVC005 23/20 A3024 RMK AO2 CIG 004V008 T02280200
KEQY 251453Z AUTO 04004KT 5SM BR OVC004 22/20 A3025 RMK AO2 SLP243 T02170200 51012
KEQY 251404Z AUTO VRB04KT 4SM BR OVC003 21/20 A3024 RMK AO2 T02110200
KEQY 251353Z AUTO 07004KT 5SM BR OVC002 21/20 A3024 RMK AO2 SLP241 T02110200
KEQY 251344Z AUTO VRB03KT 3SM BR OVC002 21/20 A3023 RMK AO2 T02110200
KEQY 251304Z AUTO VRB03KT 1SM BR OVC002 21/20 A3022 RMK AO2 T02060200
KEQY 251253Z AUTO 08004KT 3/4SM BR OVC002 21/20 A3022 RMK AO2 SLP235 T02060200
KEQY 251245Z AUTO 05003KT 3/4SM BR OVC002 21/20 A3022 RMK AO2 T02060200
KEQY 251153Z AUTO 05006KT 1/2SM FG OVC002 20/19 A3021 RMK AO2 SLP231 T02000194 10206 20200 51008
KEQY 251146Z AUTO 05006KT 1/2SM FG OVC002 20/19 A3021 RMK AO2 T02000194
KEQY 251137Z AUTO 03006KT 3/4SM BR OVC002 20/19 A3021 RMK AO2 T02000194
KEQY 251053Z AUTO 04008KT 1 3/4SM BR OVC002 20/19 A3020 RMK AO2 SLP227 T02000194
KEQY 251048Z AUTO 04006KT 2SM BR OVC002 20/19 A3020 RMK AO2
KEQY 251041Z AUTO 04006KT 3SM BR OVC002 20/19 A3019 RMK AO2 T02000194
KEQY 250953Z AUTO 03004KT 4SM BR OVC003 21/19 A3018 RMK AO2 SLP222 T02060194
KEQY 250908Z AUTO 05005KT 7SM OVC004 21/19 A3019 RMK AO2 T02060189
KEQY 250853Z AUTO 06005KT 7SM OVC005 21/19 A3019 RMK AO2 SLP223 T02060189 56014
KEQY 250753Z AUTO 05004KT 8SM OVC005 21/19 A3020 RMK AO2 SLP227 T02060189
KEQY 250653Z AUTO 05005KT 9SM OVC006 21/19 A3021 RMK AO2 SLP232 T02060189
KEQY 250620Z AUTO 06005KT 9SM BKN007 OVC095 21/18 A3022 RMK AO2 T02060183
KEQY 250607Z AUTO 06005KT 9SM SCT007 BKN095 20/18 A3022 RMK AO2 T02000183
KEQY 250602Z AUTO 06004KT 9SM BKN007 BKN024 BKN095 20/18 A3022 RMK AO2 T02000183
KEQY 250553Z AUTO 05005KT 10SM SCT008 BKN023 20/18 A3023 RMK AO2 SLP238 T02000183 10228 20200 57002
KEQY 250534Z AUTO 05006KT 10SM FEW008 OVC021 21/18 A3023 RMK AO2 T02060183
KEQY 250453Z AUTO 05006KT 10SM SCT010 OVC020 21/18 A3023 RMK AO2 SLP239 T02060183 402500183
KEQY 250451Z AUTO 05006KT 10SM SCT010 BKN020 OVC095 21/18 A3023 RMK AO2
KEQY 250444Z AUTO 04006KT 10SM BKN009 BKN020 OVC095 21/18 A3023 RMK AO2 T02110183
KEQY 250435Z AUTO 03006KT 10SM SCT009 OVC095 21/19 A3024 RMK AO2 T02110189
KEQY 250408Z AUTO 05006KT 10SM FEW021 SCT026 OVC100 21/18 A3023 RMK AO2 T02110183
KEQY 250353Z AUTO 06007KT 10SM SCT021 BKN027 OVC100 21/19 A3023 RMK AO2 SLP241 T02110189
KEQY 250337Z AUTO 06005KT 10SM SCT012 OVC100 21/19 A3024 RMK AO2 T02110189
KEQY 250321Z AUTO 06006KT 10SM BKN012 BKN019 OVC100 21/19 A3024 RMK AO2 T02110189
KEQY 250300Z AUTO 06005KT 10SM FEW012 BKN023 OVC095 22/19 A3024 RMK AO2 T02170189
KEQY 250253Z AUTO 06006KT 10SM FEW012 SCT023 OVC095 22/19 A3024 RMK AO2 SLP241 T02170189 53009
KEQY 250213Z AUTO 06005KT 10SM FEW021 SCT036 OVC095 22/19 A3023 RMK AO2 T02170189
KEQY 250153Z AUTO 05007KT 10SM BKN020 OVC037 22/19 A3023 RMK AO2 SLP238 T02220189
KEQY 250112Z AUTO 05009KT 10SM BKN020 OVC085 22/19 A3022 RMK AO2 T02220189
KEQY 250053Z AUTO 04007KT 10SM SCT025 BKN037 OVC080 22/19 A3021 RMK AO2 SLP232 T02220189
KEQY 250051Z AUTO 05008KT 10SM SCT025 BKN037 OVC080 22/19 A3021 RMK AO2
KEQY 250039Z AUTO 05007KT 10SM BKN025 OVC037 22/19 A3021 RMK AO2 T02220189
KEQY 242353Z AUTO 05007KT 10SM FEW031 OVC085 23/19 A3019 RMK AO2 SLP225 T02280189 10250 20228 53004
KEQY 242253Z AUTO 04009KT 10SM SCT030 BKN038 OVC085 24/19 A3018 RMK AO2 SLP221 T02390189
KEQY 242153Z AUTO 04004KT 10SM FEW030 BKN038 BKN048 24/19 A3017 RMK AO2 SLP219 T02440189
KEQY 242053Z AUTO 06006KT 10SM SCT024 OVC032 24/19 A3018 RMK AO2 SLP219 T02440189 56018
KEQY 242031Z AUTO VRB04KT 10SM SCT025 OVC032 24/19 A3018 RMK AO2 T02440189
KEQY 241953Z AUTO 06006KT 10SM OVC027 24/18 A3019 RMK AO2 SLP223 T02440183
KEQY 241853Z AUTO 07007KT 10SM BKN019 OVC025 24/18 A3020 RMK AO2 SLP228 T02390183
KEQY 241807Z AUTO 04007KT 10SM OVC016 24/18 A3022 RMK AO2 T02390183
KEQY 241753Z AUTO 04008KT 10SM OVC014 23/18 A3023 RMK AO2 SLP238 T02280183 10233 20183 58004